Terminal Aerodrome Forecast
Issued by NWS

Home | Current Version | Previous Version | Text Only | Print | Product List | Glossary On
Versions: 1 2 3 4 5 6 7 8 9 10 11 12 13 14 15 16 17 18 19 20
000
FTUS46 KEKA 230545
TAFCEC
TAF
KCEC 230545Z 2306/2406 18011KT 6SM -SHRA SCT025 BKN035
      TEMPO 2306/2310 4SM SHRA BR BKN025
     FM231000 15014G20KT 4SM SHRA BR BKN020 OVC040
     FM231500 17016KT 6SM -SHRA BR SCT025 BKN050
     FM231900 17016G24KT 6SM -SHRA BKN025
     FM240000 16008KT P6SM VCSH SCT040 BKN080=

USA.gov is the U.S. government's official web portal to all federal, state and local government web resources and services.